Impacts METAR Board
IDs:

KPHX - Phoenix/Sky Harbor, AZ, US

Updated at: 0800 UTC 24 Sep 2018
Potential Impact None Slight Moderate High
Time 23/20Z 23/21Z 23/22Z 23/23Z 24/00Z 24/01Z 24/02Z 24/03Z 24/04Z 24/05Z 24/06Z 24/07Z 24/08Z
Temp100 101 102 101 101 100 96 94 93 94 88 86 85
Dewpt37 39 38 36 36 36 40 42 43 41 47 48 50
Altim29.81 29.78 29.75 29.72 29.71 29.70 29.70 29.71 29.72 29.73 29.73 29.73 29.75
VIS10 10 10 10 10 10 10 10 10 10 10 10 10
CIG-- -- -- -- -- -- -- -- -- -- -- -- --
CoverSCTSCTSCTSCTSCTSCTSCTSCTSCTSCTSCTSCTSCT
FltCatVFRVFRVFRVFRVFRVFRVFRVFRVFRVFRVFRVFRVFR
WX--------------------------
WDir1401001801602001801902100010090100
WSpd12 7 9 8 5 5 4 3 0 0 6 8 7
WGst17 -- -- -- -- -- -- -- -- -- -- -- --
Raw hourly METARs
KPHX 231951Z 14012G17KT 10SM FEW100 FEW120 SCT250 38/03 A2981 RMK AO2 SLP072 T03780028
KPHX 232051Z 10007KT 10SM FEW100 FEW120 SCT250 38/04 A2978 RMK AO2 SLP061 T03830039 58030
KPHX 232151Z 18009KT 10SM FEW100 FEW120 SCT250 39/03 A2975 RMK AO2 SLP051 T03890033
KPHX 232251Z 16008KT 10SM FEW100 FEW120 SCT200 38/02 A2972 RMK AO2 SLP041 T03830022
KPHX 232351Z 20005KT 10SM FEW100 FEW120 SCT200 38/02 A2971 RMK AO2 SLP038 T03830022 10400 20356 56023
KPHX 240051Z 18005KT 10SM FEW120 SCT200 38/02 A2970 RMK AO2 SLP037 T03780022
KPHX 240151Z 19004KT 10SM FEW120 SCT200 36/04 A2970 RMK AO2 SLP036 T03560044
KPHX 240251Z 21003KT 10SM FEW120 SCT200 34/06 A2971 RMK AO2 SLP040 T03440056 53001
KPHX 240351Z 00000KT 10SM FEW120 SCT200 34/06 A2972 RMK AO2 SLP043 T03390061
KPHX 240451Z 00000KT 10SM FEW120 SCT250 34/05 A2973 RMK AO2 SLP044 T03440050
KPHX 240551Z 10006KT 10SM FEW120 SCT250 31/08 A2973 RMK AO2 SLP046 T03110083 10383 20311 51007
KPHX 240651Z 09008KT 10SM FEW120 SCT250 30/09 A2973 RMK AO2 SLP047 T03000089 404000256
KPHX 240751Z 10007KT 10SM SCT180 29/10 A2975 RMK AO2 SLP051 T02940100



Page loaded:  08:23 UTC  |   01:23 AM Pacific  |   02:23 AM Mountain  |   03:23 AM Central  |   04:23 AM Eastern

 

ADVISORIES

FORECASTS

FORECASTS

OBSERVATIONS

USER TOOLS

ABOUT US